Time;durP1;ratioP1;P1;durP2;ratioP2;P2;SDS_P1;SDS_P2;PMS_P1;PMS_P2;Temp;Humidity;BMP_temperature;BMP_pressure;BME280_temperature;BME280_humidity;BME280_pressure;Samples;Min_cycle;Max_cycle;Signal;HPM_P1;HPM_P2
2021/12/01 00:00:46;;;;;;;;;;;9.50;99.90;;;;;;5017590;28;19925;-82
2021/12/01 00:03:12;;;;;;;;;;;9.50;99.90;;;;;;5030645;28;19929;-82
2021/12/01 00:05:38;;;;;;;;;;;9.60;99.90;;;;;;5010069;28;19921;-82
2021/12/01 00:08:04;;;;;;;;;;;9.60;99.90;;;;;;5040126;28;20439;-83
2021/12/01 00:10:30;;;;;;;;;;;9.60;99.90;;;;;;5039287;28;19928;-81
2021/12/01 00:12:56;;;;;;;;;;;9.60;99.90;;;;;;5020808;28;19921;-81
2021/12/01 00:15:21;;;;;;;;;;;9.60;99.90;;;;;;5039490;28;19931;-82
2021/12/01 00:17:49;;;;;;;;;;;9.60;99.90;;;;;;5040257;28;19955;-82
2021/12/01 00:20:16;;;;;;;;;;;9.60;99.90;;;;;;5006790;28;20453;-82
2021/12/01 00:22:42;;;;;;;;;;;9.70;99.90;;;;;;5010226;28;19921;-83
2021/12/01 00:25:08;;;;;;;;;;;9.70;99.90;;;;;;4993963;28;19925;-82
2021/12/01 00:27:34;;;;;;;;;;;9.70;99.90;;;;;;5026106;28;19921;-82
2021/12/01 00:30:00;;;;;;;;;;;9.70;99.90;;;;;;5004367;28;19952;-82
2021/12/01 00:32:26;;;;;;;;;;;9.70;99.90;;;;;;5010931;28;20019;-81
2021/12/01 00:34:53;;;;;;;;;;;9.80;99.90;;;;;;5014314;28;19925;-83
2021/12/01 00:37:19;;;;;;;;;;;9.80;99.90;;;;;;5035075;28;19925;-85
2021/12/01 00:39:45;;;;;;;;;;;9.80;99.90;;;;;;5039701;28;19928;-82
2021/12/01 00:42:11;;;;;;;;;;;9.80;99.90;;;;;;5015308;28;20000;-81
2021/12/01 00:44:44;;;;;;;;;;;9.80;99.90;;;;;;5054494;28;19921;-81
2021/12/01 00:47:12;;;;;;;;;;;9.80;99.90;;;;;;5026274;28;19932;-82
2021/12/01 00:49:38;;;;;;;;;;;9.80;99.90;;;;;;5003785;28;19922;-84
2021/12/01 00:52:05;;;;;;;;;;;9.80;99.90;;;;;;5013012;28;19928;-83
2021/12/01 00:54:31;;;;;;;;;;;9.80;99.90;;;;;;5020804;28;19948;-80
2021/12/01 00:56:57;;;;;;;;;;;9.80;99.90;;;;;;5039064;28;19925;-82
2021/12/01 00:59:22;;;;;;;;;;;9.80;99.90;;;;;;5035918;28;19925;-82
2021/12/01 01:01:48;;;;;;;;;;;9.90;99.90;;;;;;5036153;28;20371;-83
2021/12/01 01:04:14;;;;;;;;;;;9.80;99.90;;;;;;5033928;28;19921;-84
2021/12/01 01:06:41;;;;;;;;;;;9.90;99.90;;;;;;5022183;28;19932;-81
2021/12/01 01:09:08;;;;;;;;;;;9.90;99.90;;;;;;5028389;28;19964;-82
2021/12/01 01:17:06;;;;;;;;;;;9.90;99.90;;;;;;5037998;28;20014;-82
2021/12/01 01:19:32;;;;;;;;;;;9.90;99.90;;;;;;5038110;28;19925;-80
2021/12/01 01:21:59;;;;;;;;;;;9.90;99.90;;;;;;5012523;28;19979;-82
2021/12/01 01:24:26;;;;;;;;;;;9.90;99.90;;;;;;5038376;28;19925;-82
2021/12/01 01:26:51;;;;;;;;;;;9.90;99.90;;;;;;5020586;28;19925;-80
2021/12/01 01:29:21;;;;;;;;;;;9.90;99.90;;;;;;5020300;28;19920;-82
2021/12/01 01:31:48;;;;;;;;;;;9.90;99.90;;;;;;5003924;28;19947;-81
2021/12/01 01:34:14;;;;;;;;;;;9.90;99.90;;;;;;5016256;28;19922;-82
2021/12/01 01:36:39;;;;;;;;;;;9.90;99.90;;;;;;5004336;28;20009;-81
2021/12/01 01:39:05;;;;;;;;;;;9.80;99.90;;;;;;5035897;28;20374;-77
2021/12/01 01:41:32;;;;;;;;;;;9.80;99.90;;;;;;5016001;28;19929;-79
2021/12/01 01:43:58;;;;;;;;;;;9.80;99.90;;;;;;5035211;28;19925;-80
2021/12/01 01:46:23;;;;;;;;;;;9.80;99.90;;;;;;5005347;28;20459;-78
2021/12/01 01:51:15;;;;;;;;;;;9.80;99.90;;;;;;5008826;28;20353;-80
2021/12/01 01:53:41;;;;;;;;;;;9.80;99.90;;;;;;5024447;28;19921;-77
2021/12/01 01:56:07;;;;;;;;;;;9.90;99.90;;;;;;5022172;28;19928;-80
2021/12/01 01:58:34;;;;;;;;;;;9.90;99.90;;;;;;5027835;28;19972;-81
2021/12/01 02:01:08;;;;;;;;;;;9.90;99.90;;;;;;5015270;28;19983;-81
2021/12/01 02:03:34;;;;;;;;;;;9.90;99.90;;;;;;5015843;28;19929;-79
2021/12/01 02:06:00;;;;;;;;;;;9.90;99.90;;;;;;5015846;28;19921;-81
2021/12/01 02:08:29;;;;;;;;;;;9.90;99.90;;;;;;5030203;28;19952;-79
2021/12/01 02:10:56;;;;;;;;;;;9.90;99.90;;;;;;5026707;28;19927;-79
2021/12/01 02:13:22;;;;;;;;;;;9.80;99.90;;;;;;5016357;28;19928;-79
2021/12/01 02:15:49;;;;;;;;;;;9.80;99.90;;;;;;4998195;28;19921;-80
2021/12/01 02:18:15;;;;;;;;;;;9.80;99.90;;;;;;5033181;28;19988;-80
2021/12/01 02:20:56;;;;;;;;;;;9.90;99.90;;;;;;5022467;28;20009;-78
2021/12/01 02:23:23;;;;;;;;;;;9.90;99.90;;;;;;5020190;28;20063;-78
2021/12/01 02:25:48;;;;;;;;;;;9.90;99.90;;;;;;5031664;28;19931;-79
2021/12/01 02:28:14;;;;;;;;;;;9.90;99.90;;;;;;5021341;28;20012;-78
2021/12/01 02:30:40;;;;;;;;;;;9.90;99.90;;;;;;5031179;28;19964;-80
2021/12/01 02:33:05;;;;;;;;;;;9.90;99.90;;;;;;5009994;28;20454;-78
2021/12/01 02:35:31;;;;;;;;;;;9.90;99.90;;;;;;5015748;28;19937;-80
2021/12/01 02:37:58;;;;;;;;;;;9.90;99.90;;;;;;5028700;28;19932;-79
2021/12/01 02:40:24;;;;;;;;;;;9.90;99.90;;;;;;5031891;28;19939;-76
2021/12/01 02:42:49;;;;;;;;;;;10.00;99.90;;;;;;5013416;28;19925;-79
2021/12/01 02:45:15;;;;;;;;;;;10.00;99.90;;;;;;5032687;28;19975;-79
2021/12/01 02:47:41;;;;;;;;;;;10.00;99.90;;;;;;5011751;28;19921;-79
2021/12/01 02:50:07;;;;;;;;;;;10.00;99.90;;;;;;5025584;28;20381;-79
2021/12/01 02:52:33;;;;;;;;;;;10.10;99.90;;;;;;5047478;28;19925;-79
2021/12/01 02:55:00;;;;;;;;;;;10.00;99.90;;;;;;5022299;28;20330;-78
2021/12/01 02:57:26;;;;;;;;;;;10.00;99.90;;;;;;5013880;28;20024;-78
2021/12/01 02:59:51;;;;;;;;;;;10.00;99.90;;;;;;5014509;28;20020;-79
2021/12/01 03:02:17;;;;;;;;;;;10.00;99.90;;;;;;5007494;28;20306;-80
2021/12/01 03:04:43;;;;;;;;;;;10.10;99.90;;;;;;5031566;28;19925;-79
2021/12/01 03:07:09;;;;;;;;;;;10.10;99.90;;;;;;5012235;28;20450;-80
2021/12/01 03:09:34;;;;;;;;;;;10.10;99.90;;;;;;5010979;28;19921;-79
2021/12/01 03:12:01;;;;;;;;;;;10.10;99.90;;;;;;5025474;28;19931;-79
2021/12/01 03:14:27;;;;;;;;;;;10.10;99.90;;;;;;5030739;28;20399;-80
2021/12/01 03:16:54;;;;;;;;;;;10.10;99.90;;;;;;5011649;28;19925;-79
2021/12/01 03:19:19;;;;;;;;;;;10.10;99.90;;;;;;5017390;28;19921;-79
2021/12/01 03:21:45;;;;;;;;;;;10.10;99.90;;;;;;5014510;28;19921;-79
2021/12/01 03:24:11;;;;;;;;;;;10.10;99.90;;;;;;5020670;28;19925;-80
2021/12/01 03:26:37;;;;;;;;;;;10.10;99.90;;;;;;5030837;28;20426;-80
2021/12/01 03:29:05;;;;;;;;;;;10.10;99.90;;;;;;5026439;28;20337;-81
2021/12/01 03:31:31;;;;;;;;;;;10.10;99.90;;;;;;5029643;28;19929;-80
2021/12/01 03:33:56;;;;;;;;;;;10.10;99.90;;;;;;5028777;28;19921;-79
2021/12/01 03:36:22;;;;;;;;;;;10.10;99.90;;;;;;5013238;28;20415;-80
2021/12/01 03:38:47;;;;;;;;;;;10.10;99.90;;;;;;5031785;28;19929;-79
2021/12/01 03:41:13;;;;;;;;;;;10.10;99.90;;;;;;5024054;28;19975;-80
2021/12/01 03:43:38;;;;;;;;;;;10.10;99.90;;;;;;5031835;28;19921;-81
2021/12/01 03:46:05;;;;;;;;;;;10.00;99.90;;;;;;5003842;28;20356;-79
2021/12/01 03:48:31;;;;;;;;;;;10.00;99.90;;;;;;5031827;28;19931;-79
2021/12/01 03:50:57;;;;;;;;;;;10.00;99.90;;;;;;5026112;28;20012;-79
2021/12/01 03:53:23;;;;;;;;;;;10.00;99.90;;;;;;5031505;28;19925;-79
2021/12/01 03:55:49;;;;;;;;;;;10.00;99.90;;;;;;5025560;28;20284;-79
2021/12/01 03:58:14;;;;;;;;;;;10.00;99.90;;;;;;5011970;28;19933;-78
2021/12/01 04:00:40;;;;;;;;;;;10.00;99.90;;;;;;5024854;28;20000;-80
2021/12/01 04:03:07;;;;;;;;;;;10.00;99.90;;;;;;5023096;28;19921;-78
2021/12/01 04:05:33;;;;;;;;;;;10.00;99.90;;;;;;4999147;28;19979;-80
2021/12/01 04:08:01;;;;;;;;;;;10.00;99.90;;;;;;5003869;28;20445;-80
2021/12/01 04:10:27;;;;;;;;;;;10.00;99.90;;;;;;5011158;28;19953;-79
2021/12/01 04:12:52;;;;;;;;;;;10.00;99.90;;;;;;5012836;28;19925;-79
2021/12/01 04:15:18;;;;;;;;;;;10.00;99.90;;;;;;5030195;28;19928;-79
2021/12/01 04:17:44;;;;;;;;;;;10.00;99.90;;;;;;5030611;28;20342;-79
2021/12/01 04:20:12;;;;;;;;;;;10.00;99.90;;;;;;5026041;28;19969;-78
2021/12/01 04:22:38;;;;;;;;;;;10.00;99.90;;;;;;5030550;28;19925;-79
2021/12/01 04:25:04;;;;;;;;;;;9.90;99.90;;;;;;5023714;28;19997;-80
2021/12/01 04:27:30;;;;;;;;;;;9.90;99.90;;;;;;5012076;28;19921;-79
2021/12/01 04:29:56;;;;;;;;;;;9.90;99.90;;;;;;5023084;28;19921;-80
2021/12/01 04:32:21;;;;;;;;;;;9.90;99.90;;;;;;5034708;28;20017;-79
2021/12/01 04:34:47;;;;;;;;;;;9.90;99.90;;;;;;5029431;28;20003;-80
2021/12/01 04:37:14;;;;;;;;;;;9.90;99.90;;;;;;5021429;28;19929;-80
2021/12/01 04:39:40;;;;;;;;;;;9.90;99.90;;;;;;5017994;28;19931;-81
2021/12/01 04:42:06;;;;;;;;;;;9.90;99.90;;;;;;4997601;28;19920;-78
2021/12/01 04:44:33;;;;;;;;;;;9.90;99.90;;;;;;5017402;28;19921;-79
2021/12/01 04:47:02;;;;;;;;;;;9.90;99.90;;;;;;5028381;28;19921;-79
2021/12/01 04:49:28;;;;;;;;;;;9.90;99.90;;;;;;4998947;28;19928;-78
2021/12/01 04:51:55;;;;;;;;;;;9.90;99.90;;;;;;5000889;28;20371;-81
2021/12/01 04:54:23;;;;;;;;;;;9.90;99.90;;;;;;5029252;28;20375;-80
2021/12/01 04:56:49;;;;;;;;;;;9.90;99.90;;;;;;5000444;28;20019;-78
2021/12/01 04:59:15;;;;;;;;;;;9.90;99.90;;;;;;5010004;28;19951;-79
2021/12/01 05:01:41;;;;;;;;;;;9.80;99.90;;;;;;5029439;28;19921;-80
2021/12/01 05:04:07;;;;;;;;;;;9.70;99.90;;;;;;5005144;28;19921;-80
2021/12/01 05:06:33;;;;;;;;;;;9.70;99.90;;;;;;5017398;28;20393;-79
2021/12/01 05:08:59;;;;;;;;;;;9.70;99.90;;;;;;5011380;28;20036;-78
2021/12/01 05:11:25;;;;;;;;;;;9.70;99.90;;;;;;5027162;28;19921;-79
2021/12/01 05:13:51;;;;;;;;;;;9.70;99.90;;;;;;5017375;28;19925;-80
2021/12/01 05:16:17;;;;;;;;;;;9.60;99.90;;;;;;5020040;28;20276;-79
2021/12/01 05:18:42;;;;;;;;;;;9.60;99.90;;;;;;5031693;28;19983;-80
2021/12/01 05:21:08;;;;;;;;;;;9.60;99.90;;;;;;5029759;28;19948;-79
2021/12/01 05:23:33;;;;;;;;;;;9.60;99.90;;;;;;5014970;28;19921;-79
2021/12/01 05:25:59;;;;;;;;;;;9.60;99.90;;;;;;5032866;28;19921;-79
2021/12/01 05:28:26;;;;;;;;;;;9.50;99.90;;;;;;5032663;28;19976;-79
2021/12/01 05:30:52;;;;;;;;;;;9.50;99.90;;;;;;5000835;28;20015;-81
2021/12/01 05:33:17;;;;;;;;;;;9.50;99.90;;;;;;5014438;28;20423;-81
2021/12/01 05:35:46;;;;;;;;;;;9.50;99.90;;;;;;5032989;28;19928;-79
2021/12/01 05:38:12;;;;;;;;;;;9.50;99.90;;;;;;5013480;28;20356;-80
2021/12/01 05:40:38;;;;;;;;;;;9.50;99.90;;;;;;5032187;28;19921;-79
2021/12/01 05:43:03;;;;;;;;;;;9.40;99.90;;;;;;5012730;28;19968;-81
2021/12/01 05:45:30;;;;;;;;;;;9.40;99.90;;;;;;5018675;28;19935;-80
2021/12/01 05:47:56;;;;;;;;;;;9.40;99.90;;;;;;5014870;28;19933;-81
2021/12/01 05:50:22;;;;;;;;;;;9.40;99.90;;;;;;5029604;28;19925;-80
2021/12/01 05:52:48;;;;;;;;;;;9.40;99.90;;;;;;5032784;28;20417;-80
2021/12/01 05:55:13;;;;;;;;;;;9.40;99.90;;;;;;5021245;28;20000;-77
2021/12/01 05:57:39;;;;;;;;;;;9.30;99.90;;;;;;5000251;28;19925;-80
2021/12/01 06:00:06;;;;;;;;;;;9.30;99.90;;;;;;5027905;28;19922;-80
2021/12/01 06:02:33;;;;;;;;;;;9.30;99.90;;;;;;5032185;28;20287;-80
2021/12/01 06:04:58;;;;;;;;;;;9.30;99.90;;;;;;5010280;28;19925;-80
2021/12/01 06:07:24;;;;;;;;;;;9.30;99.90;;;;;;5000747;28;19921;-79
2021/12/01 06:09:50;;;;;;;;;;;9.20;99.90;;;;;;5032387;28;20016;-80
2021/12/01 06:12:16;;;;;;;;;;;9.20;99.90;;;;;;5030622;28;19921;-79
2021/12/01 06:14:42;;;;;;;;;;;9.20;99.90;;;;;;5014220;28;20292;-80
2021/12/01 06:17:08;;;;;;;;;;;9.20;99.90;;;;;;4999093;28;20009;-79
2021/12/01 06:19:35;;;;;;;;;;;9.20;99.90;;;;;;5012367;28;19964;-79
2021/12/01 06:22:01;;;;;;;;;;;9.10;99.90;;;;;;5018433;28;19939;-79
2021/12/01 06:24:27;;;;;;;;;;;9.10;99.90;;;;;;5028746;28;20012;-80
2021/12/01 06:26:52;;;;;;;;;;;9.10;99.90;;;;;;5015823;28;20008;-78
2021/12/01 06:29:18;;;;;;;;;;;9.10;99.90;;;;;;5029123;28;19921;-79
2021/12/01 06:31:44;;;;;;;;;;;9.10;99.90;;;;;;5032127;28;20432;-79
2021/12/01 06:34:09;;;;;;;;;;;9.00;99.90;;;;;;5028625;28;19968;-78
2021/12/01 06:36:36;;;;;;;;;;;9.10;99.90;;;;;;5016118;28;19925;-81
2021/12/01 06:39:02;;;;;;;;;;;9.00;99.90;;;;;;5014151;28;19972;-79
2021/12/01 06:41:28;;;;;;;;;;;9.00;99.90;;;;;;5016741;28;19921;-79
2021/12/01 06:43:53;;;;;;;;;;;9.00;99.90;;;;;;5024566;28;19928;-81
2021/12/01 06:46:19;;;;;;;;;;;9.00;99.90;;;;;;5004369;28;20387;-79
2021/12/01 06:48:44;;;;;;;;;;;9.00;99.90;;;;;;5022497;28;20008;-79
2021/12/01 06:51:10;;;;;;;;;;;9.00;99.90;;;;;;5011381;28;19968;-79
2021/12/01 06:53:37;;;;;;;;;;;9.00;99.90;;;;;;5016043;28;20207;-81
2021/12/01 06:56:03;;;;;;;;;;;9.00;99.90;;;;;;5013336;28;19933;-80
2021/12/01 06:58:28;;;;;;;;;;;9.00;99.90;;;;;;5006128;28;19925;-78
2021/12/01 07:00:54;;;;;;;;;;;8.90;99.90;;;;;;5029745;28;20383;-79
2021/12/01 07:03:19;;;;;;;;;;;8.90;99.90;;;;;;5019254;28;19965;-78
2021/12/01 07:05:45;;;;;;;;;;;8.90;99.90;;;;;;5017638;28;20272;-79
2021/12/01 07:08:11;;;;;;;;;;;8.90;99.90;;;;;;5027741;28;19921;-79
2021/12/01 07:10:38;;;;;;;;;;;8.90;99.90;;;;;;5026576;28;19931;-80
2021/12/01 07:13:03;;;;;;;;;;;8.90;99.90;;;;;;5030587;28;20394;-79
2021/12/01 07:15:29;;;;;;;;;;;8.90;99.90;;;;;;5016762;28;19929;-78
2021/12/01 07:17:54;;;;;;;;;;;8.90;99.90;;;;;;5023617;28;20342;-79
2021/12/01 07:20:20;;;;;;;;;;;8.80;99.90;;;;;;5031645;28;20319;-81
2021/12/01 07:22:46;;;;;;;;;;;8.80;99.90;;;;;;5030760;28;20398;-81
2021/12/01 07:25:13;;;;;;;;;;;8.80;99.90;;;;;;5030723;28;20561;-78
2021/12/01 07:27:39;;;;;;;;;;;8.80;99.90;;;;;;5031513;28;19921;-80
2021/12/01 07:30:06;;;;;;;;;;;8.80;99.90;;;;;;5031626;28;19987;-77
2021/12/01 07:32:32;;;;;;;;;;;8.80;99.90;;;;;;5014540;28;19921;-78
2021/12/01 07:34:59;;;;;;;;;;;8.80;99.90;;;;;;5024719;28;22272;-80
2021/12/01 07:37:25;;;;;;;;;;;8.90;99.90;;;;;;5031561;28;19925;-78
2021/12/01 07:39:51;;;;;;;;;;;8.80;99.90;;;;;;5015011;28;19971;-79
2021/12/01 07:42:17;;;;;;;;;;;8.80;99.90;;;;;;5032119;28;19928;-81
2021/12/01 07:44:44;;;;;;;;;;;8.90;99.90;;;;;;5012249;28;19925;-80
2021/12/01 07:47:11;;;;;;;;;;;8.90;99.90;;;;;;4982152;28;19925;-78
2021/12/01 07:49:36;;;;;;;;;;;8.90;99.90;;;;;;5011213;28;19971;-80
2021/12/01 07:52:05;;;;;;;;;;;8.90;99.90;;;;;;5033337;28;19928;-80
2021/12/01 07:54:31;;;;;;;;;;;8.80;99.90;;;;;;5014357;28;20310;-80
2021/12/01 07:56:57;;;;;;;;;;;8.80;99.90;;;;;;5030236;28;20318;-80
2021/12/01 07:59:22;;;;;;;;;;;8.90;99.90;;;;;;5029186;28;20342;-78
2021/12/01 08:01:49;;;;;;;;;;;8.90;99.90;;;;;;5030440;28;20300;-80
2021/12/01 08:04:15;;;;;;;;;;;8.90;99.90;;;;;;5027217;28;20083;-78
2021/12/01 08:06:43;;;;;;;;;;;8.90;99.90;;;;;;5019393;28;20438;-79
2021/12/01 08:09:09;;;;;;;;;;;8.90;99.90;;;;;;5029551;28;19921;-79
2021/12/01 08:11:35;;;;;;;;;;;8.90;99.90;;;;;;5030022;28;21450;-80
2021/12/01 08:14:00;;;;;;;;;;;8.90;99.90;;;;;;5014223;28;20021;-80
2021/12/01 08:16:26;;;;;;;;;;;9.00;99.90;;;;;;5034158;28;19953;-79
2021/12/01 08:18:56;;;;;;;;;;;9.00;99.90;;;;;;5032192;28;19929;-80
2021/12/01 08:21:22;;;;;;;;;;;9.00;99.90;;;;;;5016024;28;20383;-80
2021/12/01 08:23:48;;;;;;;;;;;9.00;99.90;;;;;;5026838;28;19928;-79
2021/12/01 08:26:13;;;;;;;;;;;9.10;99.90;;;;;;5029692;28;19944;-80
2021/12/01 08:28:41;;;;;;;;;;;9.10;99.90;;;;;;5036035;28;19929;-79
2021/12/01 08:31:07;;;;;;;;;;;9.10;99.90;;;;;;5003158;28;20387;-79
2021/12/01 08:33:32;;;;;;;;;;;9.10;99.90;;;;;;5013914;28;19952;-80
2021/12/01 08:35:59;;;;;;;;;;;9.10;99.90;;;;;;5030514;28;20003;-80
2021/12/01 08:38:25;;;;;;;;;;;9.10;99.90;;;;;;5015220;28;19947;-78
2021/12/01 08:40:50;;;;;;;;;;;9.10;99.90;;;;;;5015864;28;19921;-79
2021/12/01 08:43:16;;;;;;;;;;;9.10;99.90;;;;;;5037610;28;19921;-80
2021/12/01 08:45:41;;;;;;;;;;;9.20;99.90;;;;;;5029892;28;20345;-78
2021/12/01 08:48:07;;;;;;;;;;;9.10;99.90;;;;;;5028620;28;20007;-79
2021/12/01 08:50:33;;;;;;;;;;;9.20;99.90;;;;;;5025212;28;20350;-80
2021/12/01 08:53:00;;;;;;;;;;;9.20;99.90;;;;;;5002081;28;20411;-79
2021/12/01 08:55:26;;;;;;;;;;;9.20;99.90;;;;;;4999262;28;19929;-79
2021/12/01 08:57:52;;;;;;;;;;;9.20;99.90;;;;;;5031379;28;19929;-76
2021/12/01 09:00:18;;;;;;;;;;;9.20;99.90;;;;;;5010268;28;19929;-78
2021/12/01 09:02:44;;;;;;;;;;;9.20;99.90;;;;;;5022022;28;19967;-81
2021/12/01 09:05:09;;;;;;;;;;;9.20;99.90;;;;;;5030886;28;19960;-79
2021/12/01 09:07:35;;;;;;;;;;;9.20;99.90;;;;;;5002934;28;19961;-81
2021/12/01 09:10:03;;;;;;;;;;;9.20;99.90;;;;;;5000209;28;19976;-80
2021/12/01 09:12:28;;;;;;;;;;;9.20;99.90;;;;;;4998326;28;19925;-79
2021/12/01 09:14:55;;;;;;;;;;;9.20;99.90;;;;;;5028112;28;20011;-79
2021/12/01 09:17:20;;;;;;;;;;;9.20;99.90;;;;;;5029990;28;19925;-78
2021/12/01 09:19:46;;;;;;;;;;;9.20;99.90;;;;;;5032397;28;19925;-78
2021/12/01 09:22:12;;;;;;;;;;;9.30;99.90;;;;;;5012823;28;20017;-82
2021/12/01 09:24:39;;;;;;;;;;;9.30;99.90;;;;;;5015052;28;20276;-79
2021/12/01 09:27:06;;;;;;;;;;;9.30;99.90;;;;;;5018324;28;19921;-79
2021/12/01 09:29:32;;;;;;;;;;;9.30;99.90;;;;;;4998597;28;19973;-81
2021/12/01 09:31:58;;;;;;;;;;;9.30;99.90;;;;;;5032869;28;19991;-79
2021/12/01 09:34:24;;;;;;;;;;;9.30;99.90;;;;;;5030049;28;20008;-79
2021/12/01 09:36:49;;;;;;;;;;;9.40;99.90;;;;;;5034081;28;20020;-79
2021/12/01 09:39:15;;;;;;;;;;;9.50;99.90;;;;;;5010162;28;19929;-79
2021/12/01 09:41:41;;;;;;;;;;;9.40;99.90;;;;;;5032021;28;19921;-78
2021/12/01 09:44:08;;;;;;;;;;;9.40;99.90;;;;;;5012296;28;20367;-79
2021/12/01 09:46:34;;;;;;;;;;;9.40;99.90;;;;;;5013430;28;19975;-80
2021/12/01 09:48:59;;;;;;;;;;;9.40;99.90;;;;;;5015558;28;19961;-79
2021/12/01 09:51:25;;;;;;;;;;;9.30;99.90;;;;;;5017956;28;19995;-81
2021/12/01 09:53:52;;;;;;;;;;;9.30;99.90;;;;;;5033357;28;20394;-79
2021/12/01 09:56:18;;;;;;;;;;;9.20;99.90;;;;;;5018839;28;20277;-79
2021/12/01 09:58:44;;;;;;;;;;;9.20;99.90;;;;;;5007577;28;19925;-81
2021/12/01 10:01:12;;;;;;;;;;;9.10;99.90;;;;;;5023621;28;19921;-81
2021/12/01 10:03:39;;;;;;;;;;;9.00;99.90;;;;;;5023373;28;19940;-80
2021/12/01 10:06:13;;;;;;;;;;;9.00;99.90;;;;;;5031993;28;20440;-79
2021/12/01 10:08:40;;;;;;;;;;;9.00;99.90;;;;;;5050420;28;19968;-78
2021/12/01 10:11:06;;;;;;;;;;;9.10;99.90;;;;;;5035709;28;19921;-78
2021/12/01 10:13:33;;;;;;;;;;;9.20;99.90;;;;;;5008949;28;19921;-81
2021/12/01 10:16:00;;;;;;;;;;;9.20;99.90;;;;;;5029346;28;19921;-80
2021/12/01 10:18:29;;;;;;;;;;;9.20;99.90;;;;;;5025141;28;19929;-79
2021/12/01 10:21:02;;;;;;;;;;;9.20;99.90;;;;;;5036936;28;20338;-80
2021/12/01 10:23:28;;;;;;;;;;;9.20;99.90;;;;;;5017522;28;19929;-79
2021/12/01 10:25:54;;;;;;;;;;;9.20;99.90;;;;;;5013144;28;19925;-77
2021/12/01 10:28:33;;;;;;;;;;;9.20;99.90;;;;;;5017656;28;20579;-79
2021/12/01 10:30:58;;;;;;;;;;;9.20;99.90;;;;;;4999490;28;19953;-79
2021/12/01 10:33:27;;;;;;;;;;;9.20;99.90;;;;;;5031290;28;20470;-80
2021/12/01 10:35:54;;;;;;;;;;;9.20;99.90;;;;;;5013815;28;20313;-80
2021/12/01 10:38:25;;;;;;;;;;;9.20;99.90;;;;;;5032057;28;19932;-79
2021/12/01 10:40:59;;;;;;;;;;;9.10;99.90;;;;;;5027495;28;19928;-78
2021/12/01 10:43:33;;;;;;;;;;;9.10;99.90;;;;;;5015748;28;19921;-80
2021/12/01 10:46:05;;;;;;;;;;;9.40;99.90;;;;;;5027502;28;19927;-79
2021/12/01 10:48:31;;;;;;;;;;;9.60;99.90;;;;;;5015552;28;19921;-79
2021/12/01 10:50:58;;;;;;;;;;;9.70;99.90;;;;;;5030153;28;20386;-79
2021/12/01 10:53:24;;;;;;;;;;;9.70;99.90;;;;;;5022460;28;19971;-81
2021/12/01 10:55:50;;;;;;;;;;;9.70;99.90;;;;;;5029858;28;19921;-80
2021/12/01 10:58:16;;;;;;;;;;;9.70;99.90;;;;;;5024713;28;20310;-80
2021/12/01 11:00:43;;;;;;;;;;;9.60;99.90;;;;;;5015878;28;20383;-80
2021/12/01 11:03:10;;;;;;;;;;;9.50;99.90;;;;;;5027056;28;19921;-80
2021/12/01 11:05:36;;;;;;;;;;;9.40;99.90;;;;;;5031752;28;19927;-79
2021/12/01 11:08:10;;;;;;;;;;;9.40;99.90;;;;;;5030227;28;19980;-78
2021/12/01 11:10:37;;;;;;;;;;;9.40;99.90;;;;;;5044743;28;19932;-80
2021/12/01 11:13:03;;;;;;;;;;;9.30;99.90;;;;;;5022047;28;20015;-78
2021/12/01 11:15:29;;;;;;;;;;;9.30;99.90;;;;;;5012074;28;19928;-78
2021/12/01 11:17:55;;;;;;;;;;;9.20;99.90;;;;;;4992908;28;19925;-79
2021/12/01 11:20:31;;;;;;;;;;;9.20;99.90;;;;;;5024898;28;19929;-77
2021/12/01 11:23:06;;;;;;;;;;;9.20;99.90;;;;;;5031242;28;20375;-79
2021/12/01 11:25:35;;;;;;;;;;;9.20;99.90;;;;;;5004087;28;20268;-79
2021/12/01 11:28:01;;;;;;;;;;;9.20;99.90;;;;;;5012309;28;19926;-78
2021/12/01 11:30:27;;;;;;;;;;;9.10;99.90;;;;;;4999875;28;19921;-80
2021/12/01 11:32:52;;;;;;;;;;;9.00;99.90;;;;;;5014563;28;19960;-79
2021/12/01 11:35:18;;;;;;;;;;;9.00;99.90;;;;;;5025978;28;19921;-79
2021/12/01 11:37:44;;;;;;;;;;;9.00;99.90;;;;;;5006883;28;19932;-79
2021/12/01 11:40:10;;;;;;;;;;;9.00;99.90;;;;;;5031287;28;19971;-79
2021/12/01 11:42:37;;;;;;;;;;;9.00;99.90;;;;;;5008744;28;19929;-77
2021/12/01 11:45:03;;;;;;;;;;;9.00;99.90;;;;;;5012327;28;19932;-79
2021/12/01 11:47:28;;;;;;;;;;;9.10;99.90;;;;;;5026506;28;19929;-80
2021/12/01 11:49:55;;;;;;;;;;;9.10;99.90;;;;;;5029707;28;19921;-81
2021/12/01 11:52:25;;;;;;;;;;;9.00;99.90;;;;;;5011563;28;19967;-80
2021/12/01 11:54:51;;;;;;;;;;;9.00;99.90;;;;;;5012258;28;19928;-79
2021/12/01 11:57:19;;;;;;;;;;;9.00;99.90;;;;;;5026912;28;19925;-79
2021/12/01 11:59:49;;;;;;;;;;;8.90;99.90;;;;;;5020161;28;19929;-80
2021/12/01 12:02:21;;;;;;;;;;;8.90;99.90;;;;;;5010905;28;19933;-80
2021/12/01 12:04:48;;;;;;;;;;;8.80;99.90;;;;;;5010889;28;19925;-80
2021/12/01 12:07:21;;;;;;;;;;;8.80;99.90;;;;;;5013230;28;19932;-81
2021/12/01 12:10:12;;;;;;;;;;;8.80;99.90;;;;;;5026784;28;20019;-81
2021/12/01 12:12:49;;;;;;;;;;;8.80;99.90;;;;;;5009232;28;20299;-80
2021/12/01 12:15:33;;;;;;;;;;;8.80;99.90;;;;;;5016701;28;19944;-79
2021/12/01 12:18:00;;;;;;;;;;;8.70;99.90;;;;;;5015750;28;19925;-79
2021/12/01 12:20:30;;;;;;;;;;;8.70;99.90;;;;;;5027408;28;21569;-79
2021/12/01 12:23:01;;;;;;;;;;;8.70;99.90;;;;;;4996074;28;19922;-79
2021/12/01 12:25:42;;;;;;;;;;;8.70;99.90;;;;;;5028901;28;19968;-79
2021/12/01 12:28:22;;;;;;;;;;;8.60;99.90;;;;;;5011120;28;19944;-78
2021/12/01 12:30:47;;;;;;;;;;;8.60;99.90;;;;;;5012894;28;19921;-80
2021/12/01 12:33:18;;;;;;;;;;;8.60;99.90;;;;;;5022031;28;19921;-79
2021/12/01 12:35:45;;;;;;;;;;;8.60;99.90;;;;;;5013829;28;19968;-80
2021/12/01 12:38:11;;;;;;;;;;;8.70;99.90;;;;;;5028288;28;19925;-80
2021/12/01 12:40:38;;;;;;;;;;;8.70;99.90;;;;;;5013594;28;19929;-79
2021/12/01 12:43:04;;;;;;;;;;;8.80;99.90;;;;;;5030510;28;19925;-78
2021/12/01 12:45:29;;;;;;;;;;;8.90;99.90;;;;;;5024807;28;19922;-79
2021/12/01 12:47:55;;;;;;;;;;;9.00;99.90;;;;;;5030565;28;19991;-78
2021/12/01 12:50:24;;;;;;;;;;;8.80;99.90;;;;;;5028384;28;20019;-79
2021/12/01 12:52:50;;;;;;;;;;;8.80;99.90;;;;;;5014614;28;20390;-79
2021/12/01 12:55:34;;;;;;;;;;;8.70;99.90;;;;;;5028665;28;19921;-80
2021/12/01 12:58:01;;;;;;;;;;;8.70;99.90;;;;;;5031494;28;20016;-80
2021/12/01 13:00:27;;;;;;;;;;;8.60;99.90;;;;;;5030885;28;20282;-78
2021/12/01 13:02:53;;;;;;;;;;;8.60;99.90;;;;;;5017091;28;19921;-80
2021/12/01 13:05:30;;;;;;;;;;;8.60;99.90;;;;;;5034313;28;19921;-79
2021/12/01 13:07:56;;;;;;;;;;;8.60;99.90;;;;;;5030900;28;19925;-79
2021/12/01 13:10:24;;;;;;;;;;;8.60;99.90;;;;;;4998078;28;19924;-80
2021/12/01 13:12:54;;;;;;;;;;;8.50;99.90;;;;;;5004312;28;19921;-80
2021/12/01 13:15:21;;;;;;;;;;;8.50;99.90;;;;;;5012385;28;19929;-79
2021/12/01 13:17:47;;;;;;;;;;;8.40;99.90;;;;;;5012018;28;19925;-79
2021/12/01 13:20:12;;;;;;;;;;;8.30;99.90;;;;;;5031457;28;19925;-80
2021/12/01 13:22:39;;;;;;;;;;;8.30;99.90;;;;;;5030037;28;20373;-79
2021/12/01 13:25:07;;;;;;;;;;;8.30;99.90;;;;;;5028983;28;20403;-80
2021/12/01 13:27:41;;;;;;;;;;;8.30;99.90;;;;;;5030675;28;19995;-78
2021/12/01 13:30:07;;;;;;;;;;;8.20;99.90;;;;;;5029415;28;19929;-80
2021/12/01 13:32:33;;;;;;;;;;;8.30;99.90;;;;;;5013756;28;19936;-80
2021/12/01 13:34:59;;;;;;;;;;;8.30;99.90;;;;;;5014590;28;19985;-81
2021/12/01 13:37:25;;;;;;;;;;;8.30;99.90;;;;;;5030912;28;20012;-80
2021/12/01 13:39:53;;;;;;;;;;;8.30;99.90;;;;;;5015045;28;19921;-82
2021/12/01 13:42:23;;;;;;;;;;;8.40;99.90;;;;;;5031953;28;19929;-82
2021/12/01 13:44:50;;;;;;;;;;;8.40;99.90;;;;;;5032213;28;19944;-84
2021/12/01 13:47:17;;;;;;;;;;;8.40;99.90;;;;;;5030160;28;19929;-83
2021/12/01 13:49:45;;;;;;;;;;;8.40;99.90;;;;;;5030491;28;19948;-81
2021/12/01 13:52:25;;;;;;;;;;;8.20;99.90;;;;;;5030776;28;19925;-83
2021/12/01 13:54:52;;;;;;;;;;;8.20;99.90;;;;;;5017638;28;19944;-82
2021/12/01 13:57:18;;;;;;;;;;;8.10;99.90;;;;;;4997957;28;20011;-83
2021/12/01 13:59:45;;;;;;;;;;;8.00;99.90;;;;;;5032727;28;19961;-82
2021/12/01 14:02:11;;;;;;;;;;;8.00;99.90;;;;;;5028081;28;19922;-84
2021/12/01 14:04:37;;;;;;;;;;;8.00;99.90;;;;;;5015766;28;19925;-84
2021/12/01 14:07:03;;;;;;;;;;;8.00;99.90;;;;;;5016770;28;20293;-83
2021/12/01 14:09:30;;;;;;;;;;;8.00;99.90;;;;;;5032349;28;19929;-83
2021/12/01 14:12:02;;;;;;;;;;;7.90;99.90;;;;;;5016330;28;20280;-85
2021/12/01 14:14:27;;;;;;;;;;;7.90;99.90;;;;;;5015972;28;19925;-84
2021/12/01 14:16:54;;;;;;;;;;;7.90;99.90;;;;;;5011915;28;19960;-85
2021/12/01 14:19:20;;;;;;;;;;;7.80;99.90;;;;;;5029809;28;19956;-85
2021/12/01 14:21:47;;;;;;;;;;;7.70;99.90;;;;;;4995868;28;19921;-82
2021/12/01 14:24:14;;;;;;;;;;;7.70;99.90;;;;;;5032404;28;19927;-83
2021/12/01 14:26:42;;;;;;;;;;;7.60;99.90;;;;;;5031732;28;19933;-84
2021/12/01 14:29:10;;;;;;;;;;;7.60;99.90;;;;;;5033487;28;19975;-83
2021/12/01 14:31:36;;;;;;;;;;;7.50;99.90;;;;;;5030316;28;19929;-83
2021/12/01 14:34:06;;;;;;;;;;;7.50;99.90;;;;;;5016064;28;19929;-84